Kinei Maru No.18 — JD3019 — position and weather

sailwx.info

Track history (hours):
 
Tides and Currents Weather Stations Pressure Air Temp Water Temp Dewpoint Dewpoint Depression Visibility Wind Speed Wind Dir Waves Ship Positions

Kinei Maru No.18

Last reported at 2018-Jun-22 12:39 UTC. Time now 2018-Jun-24 22:28 UTC.
Position N 33°49' E 135°06'.

Length 74 m; draft 4.1 m.

MMSI: 431000530.

Date/timePositionNaut miles runAvg speedWind from/ knotsBaromVisibWave heightAir tempDewpointWater temp
2018-Jun-22 12:39N 33°49' E 135°06'512.2
2018-Jun-22 12:14N 33°52' E 135°02'411.6
2018-Jun-22 11:54N 33°56' E 135°02'511.7
2018-Jun-22 11:31N 34°01' E 135°02'611.6
2018-Jun-22 11:00N 34°07' E 135°02'611.4
2018-Jun-22 10:31N 34°12' E 135°03'611.3
2018-Jun-22 10:00N 34°18' E 135°04'511.0
2018-Jun-22 09:31N 34°23' E 135°07'611.0
2018-Jun-22 09:01N 34°27' E 135°12'611.6
2018-Jun-22 08:30N 34°30' E 135°17'611.7
2018-Jun-22 08:01N 34°33' E 135°23'3 5.2
2018-Jun-22 07:31N 34°34' E 135°26'0 0.0
2018-Jun-22 07:01N 34°34' E 135°26'0 0.0
2018-Jun-22 06:30N 34°34' E 135°26'0 0.0
2018-Jun-22 06:00N 34°34' E 135°26'0 0.0
2018-Jun-22 05:31N 34°34' E 135°26'0 0.0
2018-Jun-22 05:00N 34°34' E 135°26'0 0.0
2018-Jun-22 04:29N 34°34' E 135°26'0 0.0
2018-Jun-22 04:01N 34°34' E 135°26'0 0.0
2018-Jun-22 03:28N 34°34' E 135°26'0 0.0
2018-Jun-22 03:00N 34°34' E 135°26'0 0.0
2018-Jun-22 02:31N 34°34' E 135°26'0 0.0
2018-Jun-22 02:00N 34°34' E 135°26'0 0.0
2018-Jun-22 01:29N 34°34' E 135°26'0 0.0
2018-Jun-22 00:58N 34°34' E 135°26'0 0.0
2018-Jun-22 00:08N 34°34' E 135°26'0 0.0
2018-Jun-21 23:58N 34°34' E 135°26'0 0.0
2018-Jun-21 23:30N 34°34' E 135°26'0 0.0
2018-Jun-21 22:54N 34°34' E 135°26'0 0.1
2018-Jun-21 22:16N 34°34' E 135°26'0 0.0
2018-Jun-21 21:10N 34°34' E 135°26'0 0.3
2018-Jun-21 21:00N 34°33' E 135°26'3 4.5
2018-Jun-21 20:22N 34°34' E 135°23'0 0.0
2018-Jun-21 19:55N 34°34' E 135°23'0 0.1
2018-Jun-21 19:31N 34°34' E 135°23'0 0.0
2018-Jun-21 18:58N 34°34' E 135°23'0 0.1
2018-Jun-21 18:30N 34°34' E 135°23'0 0.1
2018-Jun-21 18:00N 34°34' E 135°23'0 0.0
2018-Jun-21 17:30N 34°34' E 135°23'0 0.0
2018-Jun-21 17:00N 34°34' E 135°23'0 0.0
2018-Jun-21 16:30N 34°34' E 135°23'0 0.0
2018-Jun-21 15:58N 34°34' E 135°23'0 0.0
2018-Jun-21 15:07N 34°34' E 135°23'0 0.0
2018-Jun-21 14:56N 34°34' E 135°23'0 0.0
2018-Jun-21 14:26N 34°34' E 135°23'0 0.0
2018-Jun-21 13:57N 34°34' E 135°23'0 0.0
2018-Jun-21 13:30N 34°34' E 135°23'2 4.8
2018-Jun-21 13:00N 34°34' E 135°20'611.9
2018-Jun-21 12:30N 34°35' E 135°13'612.7
2018-Jun-21 12:00N 34°35' E 135°05'2611.9
2018-Jun-21 09:50N 34°28' E 134°35'12 0.2
2018-Jun-19 07:08N 34°26' E 134°21'212.2
2018-Jun-19 07:00N 34°26' E 134°23'612.3
2018-Jun-19 06:30N 34°28' E 134°30'612.2
2018-Jun-19 06:00N 34°30' E 134°37'612.6
2018-Jun-19 05:31N 34°32' E 134°44'713.5
2018-Jun-19 05:00N 34°35' E 134°51'913.1
2018-Jun-19 04:19N 34°37' E 135°02'412.4
2018-Jun-19 04:00N 34°36' E 135°07'612.4
2018-Jun-19 03:30N 34°34' E 135°14'712.7
2018-Jun-19 02:58N 34°33' E 135°22'3 1.1
2018-Jun-19 00:26N 34°31' E 135°24'0 0.0
2018-Jun-18 14:53N 34°31' E 135°24'0 0.0
2018-Jun-17 23:34N 34°31' E 135°24'0 0.3
2018-Jun-17 23:30N 34°31' E 135°24'0 0.0
2018-Jun-17 22:58N 34°31' E 135°24'0 0.0
2018-Jun-17 22:30N 34°31' E 135°24'0 0.0
2018-Jun-17 22:00N 34°31' E 135°24'0 0.0
2018-Jun-17 21:30N 34°31' E 135°24'0 0.0
2018-Jun-17 20:58N 34°31' E 135°24'0 0.0
2018-Jun-17 20:30N 34°31' E 135°24'0 0.0
2018-Jun-17 19:59N 34°31' E 135°24'0 0.0
2018-Jun-17 19:30N 34°31' E 135°24'0 0.0
2018-Jun-17 19:00N 34°31' E 135°24'0 0.0
2018-Jun-17 18:29N 34°31' E 135°24'0 0.0
2018-Jun-17 18:00N 34°31' E 135°24'0 0.0
2018-Jun-17 17:30N 34°31' E 135°24'0 0.0
2018-Jun-17 17:00N 34°31' E 135°24'0 0.0
2018-Jun-17 16:30N 34°31' E 135°24'0 0.0
2018-Jun-17 16:00N 34°31' E 135°24'0 0.0
2018-Jun-17 15:30N 34°31' E 135°24'0 0.0
2018-Jun-17 15:00N 34°31' E 135°24'0 0.0
2018-Jun-17 14:29N 34°31' E 135°24'0 0.0
2018-Jun-17 14:00N 34°31' E 135°24'0 0.0
2018-Jun-17 13:30N 34°31' E 135°24'0 0.0
2018-Jun-17 13:00N 34°31' E 135°24'0 0.0
2018-Jun-17 12:30N 34°31' E 135°24'0 0.0
2018-Jun-17 12:00N 34°31' E 135°24'0 0.0
2018-Jun-17 11:30N 34°31' E 135°24'0 0.0
2018-Jun-17 11:00N 34°31' E 135°24'0 0.0
2018-Jun-17 10:30N 34°31' E 135°24'0 0.0
2018-Jun-17 10:00N 34°31' E 135°24'0 0.0
2018-Jun-17 09:30N 34°31' E 135°24'0 0.0
2018-Jun-17 09:00N 34°31' E 135°24'0 0.0
2018-Jun-17 08:30N 34°31' E 135°24'0 0.0
2018-Jun-17 08:00N 34°31' E 135°24'0 0.0
2018-Jun-17 07:30N 34°31' E 135°24'0 0.0
2018-Jun-17 07:00N 34°31' E 135°24'0 0.0
2018-Jun-17 06:30N 34°31' E 135°24'0 0.0
2018-Jun-17 06:00N 34°31' E 135°24'0 0.0
2018-Jun-17 05:30N 34°31' E 135°24'0 0.0
2018-Jun-17 05:00N 34°31' E 135°24'0 0.0
2018-Jun-17 04:29N 34°31' E 135°24'0 0.0
2018-Jun-17 04:00N 34°31' E 135°24'0 0.0
2018-Jun-17 03:30N 34°31' E 135°24'0 0.0
2018-Jun-17 02:58N 34°31' E 135°24'0 0.0
2018-Jun-17 02:28N 34°31' E 135°24'0 0.0
2018-Jun-17 02:00N 34°31' E 135°24'0 0.0
2018-Jun-17 01:30N 34°31' E 135°24'0 0.0
2018-Jun-17 01:00N 34°31' E 135°24'0 0.0
2018-Jun-17 00:29N 34°31' E 135°24'0 0.0
2018-Jun-17 00:00N 34°31' E 135°24'0 0.0
2018-Jun-16 23:30N 34°31' E 135°24'0 0.4
2018-Jun-16 23:00N 34°31' E 135°24'3 5.2
2018-Jun-16 22:30N 34°33' E 135°22'0 0.7
2018-Jun-16 22:00N 34°32' E 135°21'0 0.0
2018-Jun-16 21:30N 34°32' E 135°21'0 0.0
2018-Jun-16 21:00N 34°32' E 135°21'0 0.0
2018-Jun-16 20:30N 34°32' E 135°21'0 0.0
2018-Jun-16 20:00N 34°32' E 135°21'0 0.0
2018-Jun-16 19:30N 34°32' E 135°21'0 0.0
2018-Jun-16 18:59N 34°32' E 135°21'0 0.0
2018-Jun-16 18:30N 34°32' E 135°21'0 0.0
2018-Jun-16 18:00N 34°32' E 135°21'0 0.1
2018-Jun-16 17:30N 34°32' E 135°21'0 0.0
2018-Jun-16 17:00N 34°32' E 135°21'0 0.0
2018-Jun-16 16:30N 34°32' E 135°21'2 3.5
2018-Jun-16 16:00N 34°31' E 135°20'611.1
2018-Jun-16 15:30N 34°28' E 135°14'611.7
2018-Jun-16 15:00N 34°24' E 135°09'611.8
2018-Jun-16 14:30N 34°21' E 135°03'611.1
2018-Jun-16 14:01N 34°16' E 134°59'713.5
2018-Jun-16 13:30N 34°09' E 135°00'613.0
2018-Jun-16 13:01N 34°03' E 135°01'713.2
2018-Jun-16 12:30N 33°56' E 135°02'  
Track history (hours):
 
Tides and Currents Weather Stations Pressure Air Temp Water Temp Dewpoint Dewpoint Depression Visibility Wind Speed Wind Dir Waves Ship Positions

Kinei Maru No.18

Last reported at 2018-Jun-22 12:39 UTC. Time now 2018-Jun-24 22:28 UTC.
Position N 33°49' E 135°06'.

Length 74 m; draft 4.1 m.

MMSI: 431000530.

Date/timePositionNaut miles runAvg speedWind from/ knotsBaromVisibWave heightAir tempDewpointWater temp
2018-Jun-22 12:39N 33°49' E 135°06'512.2
2018-Jun-22 12:14N 33°52' E 135°02'411.6
2018-Jun-22 11:54N 33°56' E 135°02'511.7
2018-Jun-22 11:31N 34°01' E 135°02'611.6
2018-Jun-22 11:00N 34°07' E 135°02'611.4
2018-Jun-22 10:31N 34°12' E 135°03'611.3
2018-Jun-22 10:00N 34°18' E 135°04'511.0
2018-Jun-22 09:31N 34°23' E 135°07'611.0
2018-Jun-22 09:01N 34°27' E 135°12'611.6
2018-Jun-22 08:30N 34°30' E 135°17'611.7
2018-Jun-22 08:01N 34°33' E 135°23'3 5.2
2018-Jun-22 07:31N 34°34' E 135°26'0 0.0
2018-Jun-22 07:01N 34°34' E 135°26'0 0.0
2018-Jun-22 06:30N 34°34' E 135°26'0 0.0
2018-Jun-22 06:00N 34°34' E 135°26'0 0.0
2018-Jun-22 05:31N 34°34' E 135°26'0 0.0
2018-Jun-22 05:00N 34°34' E 135°26'0 0.0
2018-Jun-22 04:29N 34°34' E 135°26'0 0.0
2018-Jun-22 04:01N 34°34' E 135°26'0 0.0
2018-Jun-22 03:28N 34°34' E 135°26'0 0.0
2018-Jun-22 03:00N 34°34' E 135°26'0 0.0
2018-Jun-22 02:31N 34°34' E 135°26'0 0.0
2018-Jun-22 02:00N 34°34' E 135°26'0 0.0
2018-Jun-22 01:29N 34°34' E 135°26'0 0.0
2018-Jun-22 00:58N 34°34' E 135°26'0 0.0
2018-Jun-22 00:08N 34°34' E 135°26'0 0.0
2018-Jun-21 23:58N 34°34' E 135°26'0 0.0
2018-Jun-21 23:30N 34°34' E 135°26'0 0.0
2018-Jun-21 22:54N 34°34' E 135°26'0 0.1
2018-Jun-21 22:16N 34°34' E 135°26'0 0.0
2018-Jun-21 21:10N 34°34' E 135°26'0 0.3
2018-Jun-21 21:00N 34°33' E 135°26'3 4.5
2018-Jun-21 20:22N 34°34' E 135°23'0 0.0
2018-Jun-21 19:55N 34°34' E 135°23'0 0.1
2018-Jun-21 19:31N 34°34' E 135°23'0 0.0
2018-Jun-21 18:58N 34°34' E 135°23'0 0.1
2018-Jun-21 18:30N 34°34' E 135°23'0 0.1
2018-Jun-21 18:00N 34°34' E 135°23'0 0.0
2018-Jun-21 17:30N 34°34' E 135°23'0 0.0
2018-Jun-21 17:00N 34°34' E 135°23'0 0.0
2018-Jun-21 16:30N 34°34' E 135°23'0 0.0
2018-Jun-21 15:58N 34°34' E 135°23'0 0.0
2018-Jun-21 15:07N 34°34' E 135°23'0 0.0
2018-Jun-21 14:56N 34°34' E 135°23'0 0.0
2018-Jun-21 14:26N 34°34' E 135°23'0 0.0
2018-Jun-21 13:57N 34°34' E 135°23'0 0.0
2018-Jun-21 13:30N 34°34' E 135°23'2 4.8
2018-Jun-21 13:00N 34°34' E 135°20'611.9
2018-Jun-21 12:30N 34°35' E 135°13'612.7
2018-Jun-21 12:00N 34°35' E 135°05'2611.9
2018-Jun-21 09:50N 34°28' E 134°35'12 0.2
2018-Jun-19 07:08N 34°26' E 134°21'212.2
2018-Jun-19 07:00N 34°26' E 134°23'612.3
2018-Jun-19 06:30N 34°28' E 134°30'612.2
2018-Jun-19 06:00N 34°30' E 134°37'612.6
2018-Jun-19 05:31N 34°32' E 134°44'713.5
2018-Jun-19 05:00N 34°35' E 134°51'913.1
2018-Jun-19 04:19N 34°37' E 135°02'412.4
2018-Jun-19 04:00N 34°36' E 135°07'612.4
2018-Jun-19 03:30N 34°34' E 135°14'712.7
2018-Jun-19 02:58N 34°33' E 135°22'3 1.1
2018-Jun-19 00:26N 34°31' E 135°24'0 0.0
2018-Jun-18 14:53N 34°31' E 135°24'0 0.0
2018-Jun-17 23:34N 34°31' E 135°24'0 0.3
2018-Jun-17 23:30N 34°31' E 135°24'0 0.0
2018-Jun-17 22:58N 34°31' E 135°24'0 0.0
2018-Jun-17 22:30N 34°31' E 135°24'0 0.0
2018-Jun-17 22:00N 34°31' E 135°24'0 0.0
2018-Jun-17 21:30N 34°31' E 135°24'0 0.0
2018-Jun-17 20:58N 34°31' E 135°24'0 0.0
2018-Jun-17 20:30N 34°31' E 135°24'0 0.0
2018-Jun-17 19:59N 34°31' E 135°24'0 0.0
2018-Jun-17 19:30N 34°31' E 135°24'0 0.0
2018-Jun-17 19:00N 34°31' E 135°24'0 0.0
2018-Jun-17 18:29N 34°31' E 135°24'0 0.0
2018-Jun-17 18:00N 34°31' E 135°24'0 0.0
2018-Jun-17 17:30N 34°31' E 135°24'0 0.0
2018-Jun-17 17:00N 34°31' E 135°24'0 0.0
2018-Jun-17 16:30N 34°31' E 135°24'0 0.0
2018-Jun-17 16:00N 34°31' E 135°24'0 0.0
2018-Jun-17 15:30N 34°31' E 135°24'0 0.0
2018-Jun-17 15:00N 34°31' E 135°24'0 0.0
2018-Jun-17 14:29N 34°31' E 135°24'0 0.0
2018-Jun-17 14:00N 34°31' E 135°24'0 0.0
2018-Jun-17 13:30N 34°31' E 135°24'0 0.0
2018-Jun-17 13:00N 34°31' E 135°24'0 0.0
2018-Jun-17 12:30N 34°31' E 135°24'0 0.0
2018-Jun-17 12:00N 34°31' E 135°24'0 0.0
2018-Jun-17 11:30N 34°31' E 135°24'0 0.0
2018-Jun-17 11:00N 34°31' E 135°24'0 0.0
2018-Jun-17 10:30N 34°31' E 135°24'0 0.0
2018-Jun-17 10:00N 34°31' E 135°24'0 0.0
2018-Jun-17 09:30N 34°31' E 135°24'0 0.0
2018-Jun-17 09:00N 34°31' E 135°24'0 0.0
2018-Jun-17 08:30N 34°31' E 135°24'0 0.0
2018-Jun-17 08:00N 34°31' E 135°24'0 0.0
2018-Jun-17 07:30N 34°31' E 135°24'0 0.0
2018-Jun-17 07:00N 34°31' E 135°24'0 0.0
2018-Jun-17 06:30N 34°31' E 135°24'0 0.0
2018-Jun-17 06:00N 34°31' E 135°24'0 0.0
2018-Jun-17 05:30N 34°31' E 135°24'0 0.0
2018-Jun-17 05:00N 34°31' E 135°24'0 0.0
2018-Jun-17 04:29N 34°31' E 135°24'0 0.0
2018-Jun-17 04:00N 34°31' E 135°24'0 0.0
2018-Jun-17 03:30N 34°31' E 135°24'0 0.0
2018-Jun-17 02:58N 34°31' E 135°24'0 0.0
2018-Jun-17 02:28N 34°31' E 135°24'0 0.0
2018-Jun-17 02:00N 34°31' E 135°24'0 0.0
2018-Jun-17 01:30N 34°31' E 135°24'0 0.0
2018-Jun-17 01:00N 34°31' E 135°24'0 0.0
2018-Jun-17 00:29N 34°31' E 135°24'0 0.0
2018-Jun-17 00:00N 34°31' E 135°24'0 0.0
2018-Jun-16 23:30N 34°31' E 135°24'0 0.4
2018-Jun-16 23:00N 34°31' E 135°24'3 5.2
2018-Jun-16 22:30N 34°33' E 135°22'0 0.7
2018-Jun-16 22:00N 34°32' E 135°21'0 0.0
2018-Jun-16 21:30N 34°32' E 135°21'0 0.0
2018-Jun-16 21:00N 34°32' E 135°21'0 0.0
2018-Jun-16 20:30N 34°32' E 135°21'0 0.0
2018-Jun-16 20:00N 34°32' E 135°21'0 0.0
2018-Jun-16 19:30N 34°32' E 135°21'0 0.0
2018-Jun-16 18:59N 34°32' E 135°21'0 0.0
2018-Jun-16 18:30N 34°32' E 135°21'0 0.0
2018-Jun-16 18:00N 34°32' E 135°21'0 0.1
2018-Jun-16 17:30N 34°32' E 135°21'0 0.0
2018-Jun-16 17:00N 34°32' E 135°21'0 0.0
2018-Jun-16 16:30N 34°32' E 135°21'2 3.5
2018-Jun-16 16:00N 34°31' E 135°20'611.1
2018-Jun-16 15:30N 34°28' E 135°14'611.7
2018-Jun-16 15:00N 34°24' E 135°09'611.8
2018-Jun-16 14:30N 34°21' E 135°03'611.1
2018-Jun-16 14:01N 34°16' E 134°59'713.5
2018-Jun-16 13:30N 34°09' E 135°00'613.0
2018-Jun-16 13:01N 34°03' E 135°01'713.2
2018-Jun-16 12:30N 33°56' E 135°02'  

Dump ship's entire track history